sensor_id;sensor_type;location;lat;lon;timestamp;P1;durP1;ratioP1;P2;durP2;ratioP2
48651;SDS011;34442;52.362;-1.302;2023-05-07T00:00:46;1.10;;;0.88;;
48651;SDS011;34442;52.362;-1.302;2023-05-07T00:03:12;2.30;;;1.13;;
48651;SDS011;34442;52.362;-1.302;2023-05-07T00:05:38;1.88;;;1.10;;
48651;SDS011;34442;52.362;-1.302;2023-05-07T00:08:04;1.80;;;1.10;;
48651;SDS011;34442;52.362;-1.302;2023-05-07T00:10:29;1.20;;;0.90;;
48651;SDS011;34442;52.362;-1.302;2023-05-07T00:12:55;1.67;;;1.20;;
48651;SDS011;34442;52.362;-1.302;2023-05-07T00:15:20;1.23;;;0.90;;
48651;SDS011;34442;52.362;-1.302;2023-05-07T00:17:46;1.17;;;0.98;;
48651;SDS011;34442;52.362;-1.302;2023-05-07T00:20:11;1.58;;;1.00;;
48651;SDS011;34442;52.362;-1.302;2023-05-07T00:22:37;2.42;;;1.42;;
48651;SDS011;34442;52.362;-1.302;2023-05-07T00:25:02;1.80;;;1.15;;
48651;SDS011;34442;52.362;-1.302;2023-05-07T00:27:28;1.55;;;1.00;;
48651;SDS011;34442;52.362;-1.302;2023-05-07T00:29:54;1.80;;;1.10;;
48651;SDS011;34442;52.362;-1.302;2023-05-07T00:32:19;2.13;;;1.30;;
48651;SDS011;34442;52.362;-1.302;2023-05-07T00:34:44;1.58;;;1.17;;
48651;SDS011;34442;52.362;-1.302;2023-05-07T00:37:10;1.77;;;1.10;;
48651;SDS011;34442;52.362;-1.302;2023-05-07T00:39:37;1.63;;;1.00;;
48651;SDS011;34442;52.362;-1.302;2023-05-07T00:42:02;1.98;;;1.00;;
48651;SDS011;34442;52.362;-1.302;2023-05-07T00:44:29;2.03;;;1.10;;
48651;SDS011;34442;52.362;-1.302;2023-05-07T00:46:55;1.23;;;0.93;;
48651;SDS011;34442;52.362;-1.302;2023-05-07T00:49:22;3.10;;;1.65;;
48651;SDS011;34442;52.362;-1.302;2023-05-07T00:51:54;1.35;;;1.00;;
48651;SDS011;34442;52.362;-1.302;2023-05-07T00:54:20;1.98;;;1.20;;
48651;SDS011;34442;52.362;-1.302;2023-05-07T00:56:46;2.42;;;1.40;;
48651;SDS011;34442;52.362;-1.302;2023-05-07T00:59:11;1.95;;;1.15;;
48651;SDS011;34442;52.362;-1.302;2023-05-07T01:01:37;1.80;;;1.10;;
48651;SDS011;34442;52.362;-1.302;2023-05-07T01:04:02;2.92;;;1.52;;
48651;SDS011;34442;52.362;-1.302;2023-05-07T01:06:27;2.30;;;1.10;;
48651;SDS011;34442;52.362;-1.302;2023-05-07T01:08:54;2.75;;;1.45;;
48651;SDS011;34442;52.362;-1.302;2023-05-07T01:11:22;2.88;;;1.55;;
48651;SDS011;34442;52.362;-1.302;2023-05-07T01:13:48;2.65;;;1.38;;
48651;SDS011;34442;52.362;-1.302;2023-05-07T01:16:15;2.38;;;1.45;;
48651;SDS011;34442;52.362;-1.302;2023-05-07T01:18:41;2.05;;;1.30;;
48651;SDS011;34442;52.362;-1.302;2023-05-07T01:21:06;2.53;;;1.30;;
48651;SDS011;34442;52.362;-1.302;2023-05-07T01:23:35;2.28;;;1.38;;
48651;SDS011;34442;52.362;-1.302;2023-05-07T01:26:01;2.53;;;1.40;;
48651;SDS011;34442;52.362;-1.302;2023-05-07T01:28:26;2.72;;;1.40;;
48651;SDS011;34442;52.362;-1.302;2023-05-07T01:30:53;2.67;;;1.55;;
48651;SDS011;34442;52.362;-1.302;2023-05-07T01:33:20;2.60;;;1.50;;
48651;SDS011;34442;52.362;-1.302;2023-05-07T01:35:48;2.10;;;1.27;;
48651;SDS011;34442;52.362;-1.302;2023-05-07T01:38:16;3.50;;;1.63;;
48651;SDS011;34442;52.362;-1.302;2023-05-07T01:40:43;2.70;;;1.30;;
48651;SDS011;34442;52.362;-1.302;2023-05-07T01:43:09;3.08;;;1.60;;
48651;SDS011;34442;52.362;-1.302;2023-05-07T01:45:35;3.60;;;1.88;;
48651;SDS011;34442;52.362;-1.302;2023-05-07T01:48:01;2.88;;;1.88;;
48651;SDS011;34442;52.362;-1.302;2023-05-07T01:50:27;2.35;;;1.35;;
48651;SDS011;34442;52.362;-1.302;2023-05-07T01:52:53;3.25;;;1.60;;
48651;SDS011;34442;52.362;-1.302;2023-05-07T01:55:19;2.55;;;1.45;;
48651;SDS011;34442;52.362;-1.302;2023-05-07T01:57:44;3.22;;;1.60;;
48651;SDS011;34442;52.362;-1.302;2023-05-07T02:00:10;3.08;;;1.60;;
48651;SDS011;34442;52.362;-1.302;2023-05-07T02:02:35;3.08;;;1.60;;
48651;SDS011;34442;52.362;-1.302;2023-05-07T02:05:01;2.85;;;1.70;;
48651;SDS011;34442;52.362;-1.302;2023-05-07T02:07:27;3.33;;;1.50;;
48651;SDS011;34442;52.362;-1.302;2023-05-07T02:09:53;3.13;;;1.80;;
48651;SDS011;34442;52.362;-1.302;2023-05-07T02:12:20;3.75;;;1.95;;
48651;SDS011;34442;52.362;-1.302;2023-05-07T02:14:46;2.88;;;1.52;;
48651;SDS011;34442;52.362;-1.302;2023-05-07T02:17:11;4.47;;;1.77;;
48651;SDS011;34442;52.362;-1.302;2023-05-07T02:19:36;3.75;;;1.95;;
48651;SDS011;34442;52.362;-1.302;2023-05-07T02:22:02;3.13;;;1.65;;
48651;SDS011;34442;52.362;-1.302;2023-05-07T02:24:27;4.30;;;2.10;;
48651;SDS011;34442;52.362;-1.302;2023-05-07T02:26:52;4.07;;;2.17;;
48651;SDS011;34442;52.362;-1.302;2023-05-07T02:29:18;3.83;;;2.10;;
48651;SDS011;34442;52.362;-1.302;2023-05-07T02:31:43;3.75;;;1.90;;
48651;SDS011;34442;52.362;-1.302;2023-05-07T02:34:08;4.07;;;2.00;;
48651;SDS011;34442;52.362;-1.302;2023-05-07T02:36:34;4.70;;;2.15;;
48651;SDS011;34442;52.362;-1.302;2023-05-07T02:38:59;3.42;;;1.90;;
48651;SDS011;34442;52.362;-1.302;2023-05-07T02:41:25;3.30;;;1.70;;
48651;SDS011;34442;52.362;-1.302;2023-05-07T02:43:50;4.03;;;2.10;;
48651;SDS011;34442;52.362;-1.302;2023-05-07T02:46:16;3.85;;;1.95;;
48651;SDS011;34442;52.362;-1.302;2023-05-07T02:48:41;4.85;;;2.38;;
48651;SDS011;34442;52.362;-1.302;2023-05-07T02:51:06;4.15;;;2.33;;
48651;SDS011;34442;52.362;-1.302;2023-05-07T02:53:32;4.53;;;2.03;;
48651;SDS011;34442;52.362;-1.302;2023-05-07T02:55:58;4.00;;;2.13;;
48651;SDS011;34442;52.362;-1.302;2023-05-07T02:58:25;3.15;;;1.80;;
48651;SDS011;34442;52.362;-1.302;2023-05-07T03:00:50;3.85;;;2.17;;
48651;SDS011;34442;52.362;-1.302;2023-05-07T03:03:16;4.30;;;2.38;;
48651;SDS011;34442;52.362;-1.302;2023-05-07T03:05:42;4.35;;;2.20;;
48651;SDS011;34442;52.362;-1.302;2023-05-07T03:08:07;3.85;;;2.03;;
48651;SDS011;34442;52.362;-1.302;2023-05-07T03:10:33;3.92;;;2.00;;
48651;SDS011;34442;52.362;-1.302;2023-05-07T03:12:58;4.18;;;2.17;;
48651;SDS011;34442;52.362;-1.302;2023-05-07T03:15:24;3.92;;;2.50;;
48651;SDS011;34442;52.362;-1.302;2023-05-07T03:17:49;4.72;;;2.67;;
48651;SDS011;34442;52.362;-1.302;2023-05-07T03:20:15;4.88;;;2.83;;
48651;SDS011;34442;52.362;-1.302;2023-05-07T03:22:40;4.00;;;2.13;;
48651;SDS011;34442;52.362;-1.302;2023-05-07T03:25:06;5.57;;;3.50;;
48651;SDS011;34442;52.362;-1.302;2023-05-07T03:27:32;5.45;;;3.15;;
48651;SDS011;34442;52.362;-1.302;2023-05-07T03:29:58;5.38;;;3.03;;
48651;SDS011;34442;52.362;-1.302;2023-05-07T03:32:23;6.53;;;3.60;;
48651;SDS011;34442;52.362;-1.302;2023-05-07T03:34:49;5.50;;;3.20;;
48651;SDS011;34442;52.362;-1.302;2023-05-07T03:37:15;5.72;;;3.10;;
48651;SDS011;34442;52.362;-1.302;2023-05-07T03:39:40;7.07;;;3.95;;
48651;SDS011;34442;52.362;-1.302;2023-05-07T03:42:05;5.25;;;2.70;;
48651;SDS011;34442;52.362;-1.302;2023-05-07T03:44:31;7.38;;;4.78;;
48651;SDS011;34442;52.362;-1.302;2023-05-07T03:46:56;6.60;;;3.40;;
48651;SDS011;34442;52.362;-1.302;2023-05-07T03:49:21;5.53;;;3.22;;
48651;SDS011;34442;52.362;-1.302;2023-05-07T03:51:47;6.28;;;3.20;;
48651;SDS011;34442;52.362;-1.302;2023-05-07T03:54:12;5.13;;;3.22;;
48651;SDS011;34442;52.362;-1.302;2023-05-07T03:56:38;6.60;;;4.13;;
48651;SDS011;34442;52.362;-1.302;2023-05-07T03:59:16;5.40;;;2.85;;
48651;SDS011;34442;52.362;-1.302;2023-05-07T04:01:42;5.88;;;3.20;;
48651;SDS011;34442;52.362;-1.302;2023-05-07T04:04:07;5.47;;;3.08;;
48651;SDS011;34442;52.362;-1.302;2023-05-07T04:06:32;5.07;;;2.53;;
48651;SDS011;34442;52.362;-1.302;2023-05-07T04:08:58;5.45;;;3.10;;
48651;SDS011;34442;52.362;-1.302;2023-05-07T04:11:23;6.18;;;3.85;;
48651;SDS011;34442;52.362;-1.302;2023-05-07T04:13:50;5.55;;;3.25;;
48651;SDS011;34442;52.362;-1.302;2023-05-07T04:16:15;5.53;;;3.00;;
48651;SDS011;34442;52.362;-1.302;2023-05-07T04:18:40;6.60;;;4.43;;
48651;SDS011;34442;52.362;-1.302;2023-05-07T04:21:13;6.90;;;4.30;;
48651;SDS011;34442;52.362;-1.302;2023-05-07T04:23:42;6.65;;;3.75;;
48651;SDS011;34442;52.362;-1.302;2023-05-07T04:26:07;5.15;;;3.13;;
48651;SDS011;34442;52.362;-1.302;2023-05-07T04:28:33;5.68;;;3.30;;
48651;SDS011;34442;52.362;-1.302;2023-05-07T04:30:59;6.05;;;3.65;;
48651;SDS011;34442;52.362;-1.302;2023-05-07T04:33:25;6.45;;;3.38;;
48651;SDS011;34442;52.362;-1.302;2023-05-07T04:35:50;5.82;;;2.95;;
48651;SDS011;34442;52.362;-1.302;2023-05-07T04:38:16;6.05;;;4.05;;
48651;SDS011;34442;52.362;-1.302;2023-05-07T04:40:41;6.45;;;3.55;;
48651;SDS011;34442;52.362;-1.302;2023-05-07T04:43:07;5.40;;;3.00;;
48651;SDS011;34442;52.362;-1.302;2023-05-07T04:45:34;6.50;;;3.80;;
48651;SDS011;34442;52.362;-1.302;2023-05-07T04:47:59;4.85;;;2.72;;
48651;SDS011;34442;52.362;-1.302;2023-05-07T04:50:25;5.72;;;3.90;;
48651;SDS011;34442;52.362;-1.302;2023-05-07T04:52:50;5.38;;;2.95;;
48651;SDS011;34442;52.362;-1.302;2023-05-07T04:55:16;5.03;;;2.72;;
48651;SDS011;34442;52.362;-1.302;2023-05-07T04:57:41;5.93;;;3.28;;
48651;SDS011;34442;52.362;-1.302;2023-05-07T05:00:07;5.78;;;3.00;;
48651;SDS011;34442;52.362;-1.302;2023-05-07T05:02:36;5.05;;;2.75;;
48651;SDS011;34442;52.362;-1.302;2023-05-07T05:05:02;4.70;;;2.50;;
48651;SDS011;34442;52.362;-1.302;2023-05-07T05:07:27;4.20;;;2.47;;
48651;SDS011;34442;52.362;-1.302;2023-05-07T05:09:53;4.18;;;2.22;;
48651;SDS011;34442;52.362;-1.302;2023-05-07T05:12:20;5.38;;;3.00;;
48651;SDS011;34442;52.362;-1.302;2023-05-07T05:14:45;4.82;;;3.03;;
48651;SDS011;34442;52.362;-1.302;2023-05-07T05:17:11;6.60;;;4.20;;
48651;SDS011;34442;52.362;-1.302;2023-05-07T05:19:36;7.32;;;4.60;;
48651;SDS011;34442;52.362;-1.302;2023-05-07T05:22:01;5.68;;;3.30;;
48651;SDS011;34442;52.362;-1.302;2023-05-07T05:24:28;5.32;;;3.20;;
48651;SDS011;34442;52.362;-1.302;2023-05-07T05:26:55;4.95;;;2.78;;
48651;SDS011;34442;52.362;-1.302;2023-05-07T05:29:20;5.30;;;2.85;;
48651;SDS011;34442;52.362;-1.302;2023-05-07T05:31:45;4.20;;;2.20;;
48651;SDS011;34442;52.362;-1.302;2023-05-07T05:34:11;4.80;;;2.67;;
48651;SDS011;34442;52.362;-1.302;2023-05-07T05:36:36;4.90;;;2.45;;
48651;SDS011;34442;52.362;-1.302;2023-05-07T05:39:01;3.92;;;2.22;;
48651;SDS011;34442;52.362;-1.302;2023-05-07T05:41:27;4.40;;;2.35;;
48651;SDS011;34442;52.362;-1.302;2023-05-07T05:43:52;4.18;;;2.00;;
48651;SDS011;34442;52.362;-1.302;2023-05-07T05:46:18;4.47;;;2.30;;
48651;SDS011;34442;52.362;-1.302;2023-05-07T05:48:44;4.63;;;2.30;;
48651;SDS011;34442;52.362;-1.302;2023-05-07T05:51:09;4.55;;;2.22;;
48651;SDS011;34442;52.362;-1.302;2023-05-07T05:53:34;4.35;;;2.30;;
48651;SDS011;34442;52.362;-1.302;2023-05-07T05:56:00;4.00;;;1.98;;
48651;SDS011;34442;52.362;-1.302;2023-05-07T05:58:25;4.55;;;2.40;;
48651;SDS011;34442;52.362;-1.302;2023-05-07T06:00:51;4.15;;;2.25;;
48651;SDS011;34442;52.362;-1.302;2023-05-07T06:03:17;4.15;;;2.10;;
48651;SDS011;34442;52.362;-1.302;2023-05-07T06:05:42;3.80;;;2.10;;
48651;SDS011;34442;52.362;-1.302;2023-05-07T06:08:08;3.95;;;1.98;;
48651;SDS011;34442;52.362;-1.302;2023-05-07T06:10:33;4.60;;;2.30;;
48651;SDS011;34442;52.362;-1.302;2023-05-07T06:13:01;4.28;;;2.20;;
48651;SDS011;34442;52.362;-1.302;2023-05-07T06:15:26;4.72;;;2.60;;
48651;SDS011;34442;52.362;-1.302;2023-05-07T06:17:52;3.97;;;2.15;;
48651;SDS011;34442;52.362;-1.302;2023-05-07T06:20:17;4.32;;;2.40;;
48651;SDS011;34442;52.362;-1.302;2023-05-07T06:22:42;4.63;;;2.50;;
48651;SDS011;34442;52.362;-1.302;2023-05-07T06:25:08;4.40;;;2.42;;
48651;SDS011;34442;52.362;-1.302;2023-05-07T06:27:33;5.30;;;2.85;;
48651;SDS011;34442;52.362;-1.302;2023-05-07T06:29:59;4.10;;;2.40;;
48651;SDS011;34442;52.362;-1.302;2023-05-07T06:32:24;5.00;;;2.35;;
48651;SDS011;34442;52.362;-1.302;2023-05-07T06:34:49;3.67;;;1.77;;
48651;SDS011;34442;52.362;-1.302;2023-05-07T06:37:15;3.80;;;2.20;;
48651;SDS011;34442;52.362;-1.302;2023-05-07T06:39:40;3.20;;;1.83;;
48651;SDS011;34442;52.362;-1.302;2023-05-07T06:42:06;4.85;;;2.38;;
48651;SDS011;34442;52.362;-1.302;2023-05-07T06:44:31;3.80;;;2.10;;
48651;SDS011;34442;52.362;-1.302;2023-05-07T06:46:57;4.70;;;2.65;;
48651;SDS011;34442;52.362;-1.302;2023-05-07T06:49:22;4.18;;;2.35;;
48651;SDS011;34442;52.362;-1.302;2023-05-07T06:51:48;4.05;;;2.30;;
48651;SDS011;34442;52.362;-1.302;2023-05-07T06:54:13;4.78;;;2.20;;
48651;SDS011;34442;52.362;-1.302;2023-05-07T06:56:38;4.80;;;2.55;;
48651;SDS011;34442;52.362;-1.302;2023-05-07T06:59:04;4.88;;;2.85;;
48651;SDS011;34442;52.362;-1.302;2023-05-07T07:01:29;4.45;;;2.70;;
48651;SDS011;34442;52.362;-1.302;2023-05-07T07:03:55;4.70;;;2.83;;
48651;SDS011;34442;52.362;-1.302;2023-05-07T07:06:20;4.63;;;2.78;;
48651;SDS011;34442;52.362;-1.302;2023-05-07T07:08:46;5.78;;;3.72;;
48651;SDS011;34442;52.362;-1.302;2023-05-07T07:11:11;4.72;;;2.80;;
48651;SDS011;34442;52.362;-1.302;2023-05-07T07:13:37;4.47;;;2.60;;
48651;SDS011;34442;52.362;-1.302;2023-05-07T07:16:02;5.97;;;3.35;;
48651;SDS011;34442;52.362;-1.302;2023-05-07T07:18:28;5.25;;;3.00;;
48651;SDS011;34442;52.362;-1.302;2023-05-07T07:20:54;5.88;;;3.15;;
48651;SDS011;34442;52.362;-1.302;2023-05-07T07:23:19;4.90;;;2.78;;
48651;SDS011;34442;52.362;-1.302;2023-05-07T07:25:45;5.13;;;3.10;;
48651;SDS011;34442;52.362;-1.302;2023-05-07T07:28:10;4.85;;;2.60;;
48651;SDS011;34442;52.362;-1.302;2023-05-07T07:30:36;5.03;;;3.20;;
48651;SDS011;34442;52.362;-1.302;2023-05-07T07:33:02;5.57;;;3.33;;
48651;SDS011;34442;52.362;-1.302;2023-05-07T07:35:31;5.57;;;3.00;;
48651;SDS011;34442;52.362;-1.302;2023-05-07T07:37:57;4.90;;;3.05;;
48651;SDS011;34442;52.362;-1.302;2023-05-07T07:40:23;6.05;;;3.17;;
48651;SDS011;34442;52.362;-1.302;2023-05-07T07:42:48;4.60;;;2.85;;
48651;SDS011;34442;52.362;-1.302;2023-05-07T07:45:14;4.90;;;2.90;;
48651;SDS011;34442;52.362;-1.302;2023-05-07T07:47:40;5.22;;;2.83;;
48651;SDS011;34442;52.362;-1.302;2023-05-07T07:50:05;4.75;;;2.95;;
48651;SDS011;34442;52.362;-1.302;2023-05-07T07:52:32;5.75;;;3.30;;
48651;SDS011;34442;52.362;-1.302;2023-05-07T07:54:57;5.22;;;3.00;;
48651;SDS011;34442;52.362;-1.302;2023-05-07T07:57:22;5.82;;;3.58;;
48651;SDS011;34442;52.362;-1.302;2023-05-07T07:59:48;5.60;;;3.35;;
48651;SDS011;34442;52.362;-1.302;2023-05-07T08:02:15;5.78;;;3.42;;
48651;SDS011;34442;52.362;-1.302;2023-05-07T08:04:40;6.95;;;3.40;;
48651;SDS011;34442;52.362;-1.302;2023-05-07T08:07:08;5.40;;;3.28;;
48651;SDS011;34442;52.362;-1.302;2023-05-07T08:09:34;5.82;;;3.67;;
48651;SDS011;34442;52.362;-1.302;2023-05-07T08:11:59;5.60;;;3.03;;
48651;SDS011;34442;52.362;-1.302;2023-05-07T08:14:26;5.63;;;3.50;;
48651;SDS011;34442;52.362;-1.302;2023-05-07T08:16:53;5.65;;;3.33;;
48651;SDS011;34442;52.362;-1.302;2023-05-07T08:19:18;6.25;;;3.85;;
48651;SDS011;34442;52.362;-1.302;2023-05-07T08:21:44;5.47;;;3.28;;
48651;SDS011;34442;52.362;-1.302;2023-05-07T08:24:12;6.20;;;3.75;;
48651;SDS011;34442;52.362;-1.302;2023-05-07T08:26:38;5.30;;;3.13;;
48651;SDS011;34442;52.362;-1.302;2023-05-07T08:29:04;6.60;;;3.38;;
48651;SDS011;34442;52.362;-1.302;2023-05-07T08:31:29;6.03;;;3.53;;
48651;SDS011;34442;52.362;-1.302;2023-05-07T08:33:55;5.63;;;3.22;;
48651;SDS011;34442;52.362;-1.302;2023-05-07T08:36:21;5.70;;;3.22;;
48651;SDS011;34442;52.362;-1.302;2023-05-07T08:38:47;5.10;;;3.00;;
48651;SDS011;34442;52.362;-1.302;2023-05-07T08:41:12;4.70;;;2.40;;
48651;SDS011;34442;52.362;-1.302;2023-05-07T08:43:38;4.40;;;2.40;;
48651;SDS011;34442;52.362;-1.302;2023-05-07T08:46:06;4.47;;;2.13;;
48651;SDS011;34442;52.362;-1.302;2023-05-07T08:48:34;3.25;;;1.90;;
48651;SDS011;34442;52.362;-1.302;2023-05-07T08:51:00;3.80;;;2.17;;
48651;SDS011;34442;52.362;-1.302;2023-05-07T08:53:26;3.17;;;1.60;;
48651;SDS011;34442;52.362;-1.302;2023-05-07T08:55:52;4.10;;;2.53;;
48651;SDS011;34442;52.362;-1.302;2023-05-07T08:58:18;4.15;;;2.38;;
48651;SDS011;34442;52.362;-1.302;2023-05-07T09:00:43;3.90;;;2.00;;
48651;SDS011;34442;52.362;-1.302;2023-05-07T09:03:08;3.47;;;1.80;;
48651;SDS011;34442;52.362;-1.302;2023-05-07T09:05:37;3.72;;;2.00;;
48651;SDS011;34442;52.362;-1.302;2023-05-07T09:08:03;3.17;;;1.90;;
48651;SDS011;34442;52.362;-1.302;2023-05-07T09:10:29;3.72;;;2.00;;
48651;SDS011;34442;52.362;-1.302;2023-05-07T09:12:54;3.13;;;1.75;;
48651;SDS011;34442;52.362;-1.302;2023-05-07T09:15:20;3.47;;;1.77;;
48651;SDS011;34442;52.362;-1.302;2023-05-07T09:17:48;3.03;;;1.38;;
48651;SDS011;34442;52.362;-1.302;2023-05-07T09:20:13;3.22;;;1.90;;
48651;SDS011;34442;52.362;-1.302;2023-05-07T09:22:39;3.33;;;1.80;;
48651;SDS011;34442;52.362;-1.302;2023-05-07T09:25:05;3.10;;;1.70;;
48651;SDS011;34442;52.362;-1.302;2023-05-07T09:27:31;3.30;;;1.90;;
48651;SDS011;34442;52.362;-1.302;2023-05-07T09:29:57;3.80;;;2.08;;
48651;SDS011;34442;52.362;-1.302;2023-05-07T09:32:22;2.63;;;1.58;;
48651;SDS011;34442;52.362;-1.302;2023-05-07T09:34:47;5.28;;;2.30;;
48651;SDS011;34442;52.362;-1.302;2023-05-07T09:37:13;4.28;;;2.33;;
48651;SDS011;34442;52.362;-1.302;2023-05-07T09:39:40;2.63;;;1.52;;
48651;SDS011;34442;52.362;-1.302;2023-05-07T09:42:06;3.63;;;1.90;;
48651;SDS011;34442;52.362;-1.302;2023-05-07T09:44:32;5.18;;;2.17;;
48651;SDS011;34442;52.362;-1.302;2023-05-07T09:46:57;3.67;;;1.70;;
48651;SDS011;34442;52.362;-1.302;2023-05-07T09:49:25;3.25;;;1.60;;
48651;SDS011;34442;52.362;-1.302;2023-05-07T09:51:57;2.70;;;1.40;;
48651;SDS011;34442;52.362;-1.302;2023-05-07T09:54:25;2.50;;;1.40;;
48651;SDS011;34442;52.362;-1.302;2023-05-07T09:56:52;1.88;;;1.20;;
48651;SDS011;34442;52.362;-1.302;2023-05-07T09:59:18;2.15;;;1.10;;
48651;SDS011;34442;52.362;-1.302;2023-05-07T10:01:44;1.83;;;1.10;;
48651;SDS011;34442;52.362;-1.302;2023-05-07T10:04:10;2.45;;;1.00;;
48651;SDS011;34442;52.362;-1.302;2023-05-07T10:06:36;1.65;;;0.93;;
48651;SDS011;34442;52.362;-1.302;2023-05-07T10:09:03;2.58;;;1.20;;
48651;SDS011;34442;52.362;-1.302;2023-05-07T10:11:32;2.60;;;1.17;;
48651;SDS011;34442;52.362;-1.302;2023-05-07T10:14:02;1.88;;;1.10;;
48651;SDS011;34442;52.362;-1.302;2023-05-07T10:16:32;3.45;;;1.20;;
48651;SDS011;34442;52.362;-1.302;2023-05-07T10:19:04;1.52;;;1.00;;
48651;SDS011;34442;52.362;-1.302;2023-05-07T10:21:31;2.53;;;1.10;;
48651;SDS011;34442;52.362;-1.302;2023-05-07T10:24:21;2.20;;;1.15;;
48651;SDS011;34442;52.362;-1.302;2023-05-07T10:26:51;1.98;;;1.10;;
48651;SDS011;34442;52.362;-1.302;2023-05-07T10:29:24;2.15;;;0.85;;
48651;SDS011;34442;52.362;-1.302;2023-05-07T10:31:59;1.58;;;1.00;;
48651;SDS011;34442;52.362;-1.302;2023-05-07T10:34:29;2.55;;;1.10;;
48651;SDS011;34442;52.362;-1.302;2023-05-07T10:37:00;1.45;;;0.98;;
48651;SDS011;34442;52.362;-1.302;2023-05-07T10:39:26;1.58;;;1.00;;
48651;SDS011;34442;52.362;-1.302;2023-05-07T10:41:52;1.67;;;1.00;;
48651;SDS011;34442;52.362;-1.302;2023-05-07T10:44:29;2.47;;;1.10;;
48651;SDS011;34442;52.362;-1.302;2023-05-07T10:47:08;1.92;;;1.08;;
48651;SDS011;34442;52.362;-1.302;2023-05-07T10:49:35;3.00;;;0.98;;
48651;SDS011;34442;52.362;-1.302;2023-05-07T10:54:41;2.47;;;1.40;;
48651;SDS011;34442;52.362;-1.302;2023-05-07T11:00:03;2.33;;;1.08;;
48651;SDS011;34442;52.362;-1.302;2023-05-07T11:05:27;1.77;;;1.00;;
48651;SDS011;34442;52.362;-1.302;2023-05-07T11:07:57;2.08;;;1.25;;
48651;SDS011;34442;52.362;-1.302;2023-05-07T11:10:46;2.05;;;1.20;;
48651;SDS011;34442;52.362;-1.302;2023-05-07T11:13:43;2.08;;;1.20;;
48651;SDS011;34442;52.362;-1.302;2023-05-07T11:18:48;1.88;;;0.98;;
48651;SDS011;34442;52.362;-1.302;2023-05-07T11:23:59;1.60;;;1.10;;
48651;SDS011;34442;52.362;-1.302;2023-05-07T11:26:25;1.38;;;0.90;;
48651;SDS011;34442;52.362;-1.302;2023-05-07T11:28:52;2.15;;;1.30;;
48651;SDS011;34442;52.362;-1.302;2023-05-07T11:31:22;1.92;;;1.00;;
48651;SDS011;34442;52.362;-1.302;2023-05-07T11:33:49;2.58;;;1.30;;
48651;SDS011;34442;52.362;-1.302;2023-05-07T11:36:15;2.13;;;1.15;;
48651;SDS011;34442;52.362;-1.302;2023-05-07T11:38:40;1.40;;;1.02;;
48651;SDS011;34442;52.362;-1.302;2023-05-07T11:41:07;2.28;;;1.10;;
48651;SDS011;34442;52.362;-1.302;2023-05-07T11:43:32;1.65;;;0.98;;
48651;SDS011;34442;52.362;-1.302;2023-05-07T11:46:10;2.35;;;1.27;;
48651;SDS011;34442;52.362;-1.302;2023-05-07T11:48:36;2.03;;;1.05;;
48651;SDS011;34442;52.362;-1.302;2023-05-07T11:51:03;2.40;;;1.10;;
48651;SDS011;34442;52.362;-1.302;2023-05-07T11:53:35;1.45;;;0.90;;
48651;SDS011;34442;52.362;-1.302;2023-05-07T11:58:33;2.33;;;1.23;;
48651;SDS011;34442;52.362;-1.302;2023-05-07T12:00:58;1.75;;;1.13;;
48651;SDS011;34442;52.362;-1.302;2023-05-07T12:03:24;1.98;;;1.15;;
48651;SDS011;34442;52.362;-1.302;2023-05-07T12:05:49;3.05;;;2.40;;
48651;SDS011;34442;52.362;-1.302;2023-05-07T12:08:18;3.53;;;2.50;;
48651;SDS011;34442;52.362;-1.302;2023-05-07T12:10:46;3.03;;;1.88;;
48651;SDS011;34442;52.362;-1.302;2023-05-07T12:15:45;2.42;;;1.40;;
48651;SDS011;34442;52.362;-1.302;2023-05-07T12:18:11;3.00;;;1.60;;
48651;SDS011;34442;52.362;-1.302;2023-05-07T12:20:40;1.88;;;1.38;;
48651;SDS011;34442;52.362;-1.302;2023-05-07T12:23:06;2.85;;;1.35;;
48651;SDS011;34442;52.362;-1.302;2023-05-07T12:25:35;1.95;;;1.20;;
48651;SDS011;34442;52.362;-1.302;2023-05-07T12:28:02;1.90;;;1.05;;
48651;SDS011;34442;52.362;-1.302;2023-05-07T12:30:29;1.60;;;1.17;;
48651;SDS011;34442;52.362;-1.302;2023-05-07T12:32:55;2.55;;;1.10;;
48651;SDS011;34442;52.362;-1.302;2023-05-07T12:35:30;2.40;;;1.23;;
48651;SDS011;34442;52.362;-1.302;2023-05-07T12:37:57;1.77;;;0.95;;
48651;SDS011;34442;52.362;-1.302;2023-05-07T12:40:24;1.77;;;0.98;;
48651;SDS011;34442;52.362;-1.302;2023-05-07T12:43:00;3.03;;;1.10;;
48651;SDS011;34442;52.362;-1.302;2023-05-07T12:45:25;1.83;;;1.10;;
48651;SDS011;34442;52.362;-1.302;2023-05-07T12:47:51;3.67;;;1.30;;
48651;SDS011;34442;52.362;-1.302;2023-05-07T12:50:16;2.45;;;1.27;;
48651;SDS011;34442;52.362;-1.302;2023-05-07T12:52:45;2.70;;;1.08;;
48651;SDS011;34442;52.362;-1.302;2023-05-07T12:55:13;1.70;;;1.00;;
48651;SDS011;34442;52.362;-1.302;2023-05-07T12:57:45;1.52;;;1.00;;
48651;SDS011;34442;52.362;-1.302;2023-05-07T13:00:13;2.43;;;1.20;;
48651;SDS011;34442;52.362;-1.302;2023-05-07T13:02:40;1.92;;;1.15;;
48651;SDS011;34442;52.362;-1.302;2023-05-07T13:05:06;2.55;;;1.17;;
48651;SDS011;34442;52.362;-1.302;2023-05-07T13:07:33;1.88;;;1.00;;
48651;SDS011;34442;52.362;-1.302;2023-05-07T13:09:58;1.63;;;1.00;;
48651;SDS011;34442;52.362;-1.302;2023-05-07T13:12:24;2.00;;;0.80;;
48651;SDS011;34442;52.362;-1.302;2023-05-07T13:14:49;2.03;;;0.90;;
48651;SDS011;34442;52.362;-1.302;2023-05-07T13:17:14;1.95;;;0.90;;
48651;SDS011;34442;52.362;-1.302;2023-05-07T13:19:40;1.15;;;0.70;;
48651;SDS011;34442;52.362;-1.302;2023-05-07T13:22:06;2.33;;;0.90;;
48651;SDS011;34442;52.362;-1.302;2023-05-07T13:24:31;1.42;;;1.20;;
48651;SDS011;34442;52.362;-1.302;2023-05-07T13:26:56;3.15;;;1.60;;
48651;SDS011;34442;52.362;-1.302;2023-05-07T13:29:22;2.15;;;1.27;;
48651;SDS011;34442;52.362;-1.302;2023-05-07T13:31:55;1.57;;;1.00;;
48651;SDS011;34442;52.362;-1.302;2023-05-07T13:34:21;2.03;;;1.10;;
48651;SDS011;34442;52.362;-1.302;2023-05-07T13:36:47;2.60;;;1.10;;
48651;SDS011;34442;52.362;-1.302;2023-05-07T13:39:12;1.77;;;1.00;;
48651;SDS011;34442;52.362;-1.302;2023-05-07T13:41:38;1.92;;;1.10;;
48651;SDS011;34442;52.362;-1.302;2023-05-07T13:44:06;1.48;;;0.95;;
48651;SDS011;34442;52.362;-1.302;2023-05-07T13:46:31;1.45;;;0.98;;
48651;SDS011;34442;52.362;-1.302;2023-05-07T13:48:57;1.40;;;0.95;;
48651;SDS011;34442;52.362;-1.302;2023-05-07T13:51:22;1.10;;;0.80;;
48651;SDS011;34442;52.362;-1.302;2023-05-07T13:53:48;1.55;;;1.00;;
48651;SDS011;34442;52.362;-1.302;2023-05-07T13:56:14;1.60;;;0.88;;
48651;SDS011;34442;52.362;-1.302;2023-05-07T13:58:39;1.70;;;0.80;;
48651;SDS011;34442;52.362;-1.302;2023-05-07T14:01:05;1.92;;;0.82;;
48651;SDS011;34442;52.362;-1.302;2023-05-07T14:03:30;1.63;;;0.90;;
48651;SDS011;34442;52.362;-1.302;2023-05-07T14:05:57;0.98;;;0.65;;
48651;SDS011;34442;52.362;-1.302;2023-05-07T14:08:24;1.08;;;0.82;;
48651;SDS011;34442;52.362;-1.302;2023-05-07T14:10:50;1.98;;;0.80;;
48651;SDS011;34442;52.362;-1.302;2023-05-07T14:13:16;1.15;;;0.80;;
48651;SDS011;34442;52.362;-1.302;2023-05-07T14:15:41;1.35;;;0.70;;
48651;SDS011;34442;52.362;-1.302;2023-05-07T14:18:11;1.42;;;0.90;;
48651;SDS011;34442;52.362;-1.302;2023-05-07T14:20:37;2.47;;;0.90;;
48651;SDS011;34442;52.362;-1.302;2023-05-07T14:23:02;1.85;;;0.88;;
48651;SDS011;34442;52.362;-1.302;2023-05-07T14:25:28;1.48;;;0.77;;
48651;SDS011;34442;52.362;-1.302;2023-05-07T14:27:53;1.27;;;0.85;;
48651;SDS011;34442;52.362;-1.302;2023-05-07T14:30:19;1.95;;;0.80;;
48651;SDS011;34442;52.362;-1.302;2023-05-07T14:32:44;1.40;;;0.77;;
48651;SDS011;34442;52.362;-1.302;2023-05-07T14:35:09;1.38;;;0.80;;
48651;SDS011;34442;52.362;-1.302;2023-05-07T14:37:35;1.35;;;0.85;;
48651;SDS011;34442;52.362;-1.302;2023-05-07T14:40:00;1.88;;;1.08;;
48651;SDS011;34442;52.362;-1.302;2023-05-07T14:42:26;2.33;;;1.20;;
48651;SDS011;34442;52.362;-1.302;2023-05-07T14:44:51;2.13;;;1.20;;
48651;SDS011;34442;52.362;-1.302;2023-05-07T14:47:17;1.55;;;0.90;;